sensor_id;sensor_type;location;lat;lon;timestamp;temperature;humidity
16838;DHT22;19510;54.486;9.046;2023-02-28T00:01:20;6.10;99.90
16838;DHT22;19510;54.486;9.046;2023-02-28T00:03:48;6.10;99.90
16838;DHT22;19510;54.486;9.046;2023-02-28T00:06:14;6.10;99.90
16838;DHT22;19510;54.486;9.046;2023-02-28T00:08:40;6.00;99.90
16838;DHT22;19510;54.486;9.046;2023-02-28T00:11:11;6.00;99.90
16838;DHT22;19510;54.486;9.046;2023-02-28T00:13:41;6.00;99.90
16838;DHT22;19510;54.486;9.046;2023-02-28T00:16:10;6.00;99.90
16838;DHT22;19510;54.486;9.046;2023-02-28T00:18:41;6.00;99.90
16838;DHT22;19510;54.486;9.046;2023-02-28T00:21:08;5.90;99.90
16838;DHT22;19510;54.486;9.046;2023-02-28T00:23:36;5.90;99.90
16838;DHT22;19510;54.486;9.046;2023-02-28T00:26:03;5.90;99.90
16838;DHT22;19510;54.486;9.046;2023-02-28T06:01:49;4.10;99.90
16838;DHT22;19510;54.486;9.046;2023-02-28T06:04:17;4.10;99.90
16838;DHT22;19510;54.486;9.046;2023-02-28T06:06:53;4.10;99.90
16838;DHT22;19510;54.486;9.046;2023-02-28T06:09:59;4.10;99.90
16838;DHT22;19510;54.486;9.046;2023-02-28T06:12:33;4.10;99.90
16838;DHT22;19510;54.486;9.046;2023-02-28T06:38:44;3.90;99.90
16838;DHT22;19510;54.486;9.046;2023-02-28T06:41:10;3.80;99.90
16838;DHT22;19510;54.486;9.046;2023-02-28T06:43:44;3.80;99.90
16838;DHT22;19510;54.486;9.046;2023-02-28T06:46:12;3.80;99.90
16838;DHT22;19510;54.486;9.046;2023-02-28T06:48:39;3.80;99.90
16838;DHT22;19510;54.486;9.046;2023-02-28T06:51:10;3.80;99.90
16838;DHT22;19510;54.486;9.046;2023-02-28T06:53:36;3.80;99.90
16838;DHT22;19510;54.486;9.046;2023-02-28T06:56:07;3.80;99.90
16838;DHT22;19510;54.486;9.046;2023-02-28T06:58:35;3.80;99.90
16838;DHT22;19510;54.486;9.046;2023-02-28T07:01:01;3.70;99.90
16838;DHT22;19510;54.486;9.046;2023-02-28T07:03:30;3.80;99.90
16838;DHT22;19510;54.486;9.046;2023-02-28T07:05:56;3.80;99.90
16838;DHT22;19510;54.486;9.046;2023-02-28T07:08:25;3.80;99.90
16838;DHT22;19510;54.486;9.046;2023-02-28T07:10:57;3.80;99.90
16838;DHT22;19510;54.486;9.046;2023-02-28T07:13:23;3.80;99.90
16838;DHT22;19510;54.486;9.046;2023-02-28T07:15:57;3.80;99.90
16838;DHT22;19510;54.486;9.046;2023-02-28T07:18:26;3.80;99.90
16838;DHT22;19510;54.486;9.046;2023-02-28T07:20:52;3.80;99.90
16838;DHT22;19510;54.486;9.046;2023-02-28T07:23:22;3.80;99.90
16838;DHT22;19510;54.486;9.046;2023-02-28T07:25:49;3.80;99.90
16838;DHT22;19510;54.486;9.046;2023-02-28T07:28:15;3.90;99.90
16838;DHT22;19510;54.486;9.046;2023-02-28T07:30:41;3.90;99.90
16838;DHT22;19510;54.486;9.046;2023-02-28T07:33:07;4.00;99.90
16838;DHT22;19510;54.486;9.046;2023-02-28T07:35:34;4.10;99.90
16838;DHT22;19510;54.486;9.046;2023-02-28T07:38:03;4.10;99.90
16838;DHT22;19510;54.486;9.046;2023-02-28T07:40:29;4.20;99.90
16838;DHT22;19510;54.486;9.046;2023-02-28T07:42:54;4.30;99.90
16838;DHT22;19510;54.486;9.046;2023-02-28T07:45:22;4.30;99.90
16838;DHT22;19510;54.486;9.046;2023-02-28T07:47:48;4.40;99.90
16838;DHT22;19510;54.486;9.046;2023-02-28T07:50:16;4.40;99.90
16838;DHT22;19510;54.486;9.046;2023-02-28T07:52:45;4.50;99.90
16838;DHT22;19510;54.486;9.046;2023-02-28T07:55:11;4.50;99.90
16838;DHT22;19510;54.486;9.046;2023-02-28T07:57:37;4.50;99.90
16838;DHT22;19510;54.486;9.046;2023-02-28T08:00:04;4.70;99.90
16838;DHT22;19510;54.486;9.046;2023-02-28T08:02:33;4.70;99.90
16838;DHT22;19510;54.486;9.046;2023-02-28T08:04:59;4.70;99.90
16838;DHT22;19510;54.486;9.046;2023-02-28T08:07:25;4.80;99.90
16838;DHT22;19510;54.486;9.046;2023-02-28T08:09:53;4.90;99.90
16838;DHT22;19510;54.486;9.046;2023-02-28T08:12:19;4.90;99.90
16838;DHT22;19510;54.486;9.046;2023-02-28T08:14:45;5.00;99.90
16838;DHT22;19510;54.486;9.046;2023-02-28T08:17:11;5.00;99.90
16838;DHT22;19510;54.486;9.046;2023-02-28T08:19:39;5.00;99.90
16838;DHT22;19510;54.486;9.046;2023-02-28T08:22:05;5.10;99.90
16838;DHT22;19510;54.486;9.046;2023-02-28T08:24:30;5.20;99.90
16838;DHT22;19510;54.486;9.046;2023-02-28T08:26:56;5.20;99.90
16838;DHT22;19510;54.486;9.046;2023-02-28T08:29:22;5.30;99.90
16838;DHT22;19510;54.486;9.046;2023-02-28T08:31:50;5.30;99.90
16838;DHT22;19510;54.486;9.046;2023-02-28T08:37:38;5.30;99.90
16838;DHT22;19510;54.486;9.046;2023-02-28T08:40:04;5.40;99.90
16838;DHT22;19510;54.486;9.046;2023-02-28T08:42:31;5.40;99.90
16838;DHT22;19510;54.486;9.046;2023-02-28T08:44:57;5.40;99.90
16838;DHT22;19510;54.486;9.046;2023-02-28T08:47:22;5.40;99.90
16838;DHT22;19510;54.486;9.046;2023-02-28T08:49:48;5.50;99.90
16838;DHT22;19510;54.486;9.046;2023-02-28T08:52:16;5.50;99.90
16838;DHT22;19510;54.486;9.046;2023-02-28T08:54:45;5.50;99.90
16838;DHT22;19510;54.486;9.046;2023-02-28T08:57:12;5.60;99.90
16838;DHT22;19510;54.486;9.046;2023-02-28T08:59:38;5.60;99.90
16838;DHT22;19510;54.486;9.046;2023-02-28T09:02:06;5.70;99.90
16838;DHT22;19510;54.486;9.046;2023-02-28T09:04:34;5.80;99.90
16838;DHT22;19510;54.486;9.046;2023-02-28T09:06:59;5.80;99.90
16838;DHT22;19510;54.486;9.046;2023-02-28T09:09:25;5.80;99.90
16838;DHT22;19510;54.486;9.046;2023-02-28T09:11:51;5.80;99.90
16838;DHT22;19510;54.486;9.046;2023-02-28T09:14:16;5.80;99.90
16838;DHT22;19510;54.486;9.046;2023-02-28T09:16:45;5.90;99.90
16838;DHT22;19510;54.486;9.046;2023-02-28T09:19:13;6.00;99.90
16838;DHT22;19510;54.486;9.046;2023-02-28T09:21:39;6.10;99.90
16838;DHT22;19510;54.486;9.046;2023-02-28T09:24:05;6.10;99.90
16838;DHT22;19510;54.486;9.046;2023-02-28T09:26:31;6.10;99.90
16838;DHT22;19510;54.486;9.046;2023-02-28T09:28:57;6.10;99.90
16838;DHT22;19510;54.486;9.046;2023-02-28T09:31:26;6.20;99.90
16838;DHT22;19510;54.486;9.046;2023-02-28T09:33:55;6.20;99.90
16838;DHT22;19510;54.486;9.046;2023-02-28T09:36:25;6.20;99.90
16838;DHT22;19510;54.486;9.046;2023-02-28T09:38:51;6.30;99.90
16838;DHT22;19510;54.486;9.046;2023-02-28T09:41:21;6.40;99.90
16838;DHT22;19510;54.486;9.046;2023-02-28T09:43:51;6.50;99.90
16838;DHT22;19510;54.486;9.046;2023-02-28T09:46:32;6.50;99.90
16838;DHT22;19510;54.486;9.046;2023-02-28T09:49:02;6.60;99.90
16838;DHT22;19510;54.486;9.046;2023-02-28T09:54:15;6.60;99.90
16838;DHT22;19510;54.486;9.046;2023-02-28T09:59:52;6.60;99.90
16838;DHT22;19510;54.486;9.046;2023-02-28T10:05:12;6.70;99.90
16838;DHT22;19510;54.486;9.046;2023-02-28T10:08:11;6.60;99.90
16838;DHT22;19510;54.486;9.046;2023-02-28T10:10:44;6.60;99.90
16838;DHT22;19510;54.486;9.046;2023-02-28T10:14:06;6.70;99.90
16838;DHT22;19510;54.486;9.046;2023-02-28T10:16:18;6.70;99.90
16838;DHT22;19510;54.486;9.046;2023-02-28T10:18:58;6.80;99.90
16838;DHT22;19510;54.486;9.046;2023-02-28T10:24:05;7.00;99.90
16838;DHT22;19510;54.486;9.046;2023-02-28T10:26:39;7.00;99.90
16838;DHT22;19510;54.486;9.046;2023-02-28T10:29:09;7.10;99.90
16838;DHT22;19510;54.486;9.046;2023-02-28T10:31:38;7.10;99.90
16838;DHT22;19510;54.486;9.046;2023-02-28T10:34:08;7.10;99.90
16838;DHT22;19510;54.486;9.046;2023-02-28T10:36:37;7.10;99.90
16838;DHT22;19510;54.486;9.046;2023-02-28T10:39:36;7.20;99.90
16838;DHT22;19510;54.486;9.046;2023-02-28T10:42:16;7.20;99.90
16838;DHT22;19510;54.486;9.046;2023-02-28T10:44:43;7.30;99.90
16838;DHT22;19510;54.486;9.046;2023-02-28T10:47:16;7.30;99.90
16838;DHT22;19510;54.486;9.046;2023-02-28T10:49:50;7.40;99.90
16838;DHT22;19510;54.486;9.046;2023-02-28T10:52:37;7.50;99.90
16838;DHT22;19510;54.486;9.046;2023-02-28T10:55:23;7.60;99.90
16838;DHT22;19510;54.486;9.046;2023-02-28T10:57:51;7.60;99.90
16838;DHT22;19510;54.486;9.046;2023-02-28T11:00:21;7.50;99.90
16838;DHT22;19510;54.486;9.046;2023-02-28T11:02:49;7.60;99.90
16838;DHT22;19510;54.486;9.046;2023-02-28T11:05:25;7.70;99.90
16838;DHT22;19510;54.486;9.046;2023-02-28T11:08:20;7.80;99.90
16838;DHT22;19510;54.486;9.046;2023-02-28T11:10:55;7.90;99.90
16838;DHT22;19510;54.486;9.046;2023-02-28T11:13:28;8.00;99.90
16838;DHT22;19510;54.486;9.046;2023-02-28T11:15:57;8.00;99.90
16838;DHT22;19510;54.486;9.046;2023-02-28T11:18:42;8.00;99.90
16838;DHT22;19510;54.486;9.046;2023-02-28T11:23:54;8.10;99.90
16838;DHT22;19510;54.486;9.046;2023-02-28T11:26:45;8.20;99.90
16838;DHT22;19510;54.486;9.046;2023-02-28T11:29:26;8.20;99.90
16838;DHT22;19510;54.486;9.046;2023-02-28T11:32:16;8.30;99.90
16838;DHT22;19510;54.486;9.046;2023-02-28T11:34:44;8.40;99.90
16838;DHT22;19510;54.486;9.046;2023-02-28T11:37:18;8.60;99.90
16838;DHT22;19510;54.486;9.046;2023-02-28T11:39:44;8.70;99.90
16838;DHT22;19510;54.486;9.046;2023-02-28T11:47:10;9.10;99.90
16838;DHT22;19510;54.486;9.046;2023-02-28T11:55:37;9.50;99.90
16838;DHT22;19510;54.486;9.046;2023-02-28T12:06:36;10.00;99.90
16838;DHT22;19510;54.486;9.046;2023-02-28T12:14:56;10.50;99.90
16838;DHT22;19510;54.486;9.046;2023-02-28T12:28:02;10.50;99.90
16838;DHT22;19510;54.486;9.046;2023-02-28T12:30:35;10.60;99.90
16838;DHT22;19510;54.486;9.046;2023-02-28T12:33:16;10.80;99.90
16838;DHT22;19510;54.486;9.046;2023-02-28T12:35:59;10.80;99.90
16838;DHT22;19510;54.486;9.046;2023-02-28T12:38:39;10.90;99.90
16838;DHT22;19510;54.486;9.046;2023-02-28T12:41:13;10.90;99.90
16838;DHT22;19510;54.486;9.046;2023-02-28T12:43:48;10.60;99.90
16838;DHT22;19510;54.486;9.046;2023-02-28T12:46:23;10.50;99.90
16838;DHT22;19510;54.486;9.046;2023-02-28T12:48:56;10.40;99.90
16838;DHT22;19510;54.486;9.046;2023-02-28T12:51:24;10.40;99.90
16838;DHT22;19510;54.486;9.046;2023-02-28T12:59:27;10.40;99.90
16838;DHT22;19510;54.486;9.046;2023-02-28T13:10:45;9.90;99.90
16838;DHT22;19510;54.486;9.046;2023-02-28T13:13:18;10.00;99.90
16838;DHT22;19510;54.486;9.046;2023-02-28T13:18:44;9.80;99.90
16838;DHT22;19510;54.486;9.046;2023-02-28T13:21:29;9.60;99.90
16838;DHT22;19510;54.486;9.046;2023-02-28T13:34:27;9.60;99.90
16838;DHT22;19510;54.486;9.046;2023-02-28T13:37:35;9.70;99.90
16838;DHT22;19510;54.486;9.046;2023-02-28T13:42:47;9.70;99.90
16838;DHT22;19510;54.486;9.046;2023-02-28T13:45:27;9.80;99.90
16838;DHT22;19510;54.486;9.046;2023-02-28T13:48:01;9.90;99.90
16838;DHT22;19510;54.486;9.046;2023-02-28T14:06:40;10.70;99.90
16838;DHT22;19510;54.486;9.046;2023-02-28T14:09:23;10.90;99.90
16838;DHT22;19510;54.486;9.046;2023-02-28T14:11:50;11.00;99.90
16838;DHT22;19510;54.486;9.046;2023-02-28T14:17:05;10.90;99.90
16838;DHT22;19510;54.486;9.046;2023-02-28T14:19:33;11.20;99.90
16838;DHT22;19510;54.486;9.046;2023-02-28T14:38:40;10.60;99.90
16838;DHT22;19510;54.486;9.046;2023-02-28T14:41:31;10.50;99.90
16838;DHT22;19510;54.486;9.046;2023-02-28T14:43:59;10.30;99.90
16838;DHT22;19510;54.486;9.046;2023-02-28T14:46:44;10.10;99.90
16838;DHT22;19510;54.486;9.046;2023-02-28T14:51:43;9.70;99.90
16838;DHT22;19510;54.486;9.046;2023-02-28T14:54:14;9.50;99.90
16838;DHT22;19510;54.486;9.046;2023-02-28T14:56:41;9.40;99.90
16838;DHT22;19510;54.486;9.046;2023-02-28T14:59:30;9.50;99.90
16838;DHT22;19510;54.486;9.046;2023-02-28T15:02:25;9.40;99.90
16838;DHT22;19510;54.486;9.046;2023-02-28T15:04:56;9.40;99.90
16838;DHT22;19510;54.486;9.046;2023-02-28T15:07:23;9.40;99.90
16838;DHT22;19510;54.486;9.046;2023-02-28T15:10:30;9.50;99.90
16838;DHT22;19510;54.486;9.046;2023-02-28T15:13:00;9.50;99.90
16838;DHT22;19510;54.486;9.046;2023-02-28T15:18:20;9.80;99.90
16838;DHT22;19510;54.486;9.046;2023-02-28T15:20:48;10.00;99.90
16838;DHT22;19510;54.486;9.046;2023-02-28T15:23:18;10.10;99.90
16838;DHT22;19510;54.486;9.046;2023-02-28T15:25:44;10.40;99.90
16838;DHT22;19510;54.486;9.046;2023-02-28T15:28:16;10.40;99.90
16838;DHT22;19510;54.486;9.046;2023-02-28T15:31:00;10.10;99.90
16838;DHT22;19510;54.486;9.046;2023-02-28T15:33:29;9.80;99.90
16838;DHT22;19510;54.486;9.046;2023-02-28T15:36:25;9.60;99.90
16838;DHT22;19510;54.486;9.046;2023-02-28T15:38:53;9.20;99.90
16838;DHT22;19510;54.486;9.046;2023-02-28T15:41:35;9.00;99.90
16838;DHT22;19510;54.486;9.046;2023-02-28T15:44:33;9.00;99.90
16838;DHT22;19510;54.486;9.046;2023-02-28T15:47:02;9.10;99.90
16838;DHT22;19510;54.486;9.046;2023-02-28T15:49:39;9.20;99.90
16838;DHT22;19510;54.486;9.046;2023-02-28T15:52:09;9.30;99.90
16838;DHT22;19510;54.486;9.046;2023-02-28T15:54:40;9.30;99.90
16838;DHT22;19510;54.486;9.046;2023-02-28T15:57:14;9.20;99.90
16838;DHT22;19510;54.486;9.046;2023-02-28T15:59:56;8.90;99.90
16838;DHT22;19510;54.486;9.046;2023-02-28T16:02:35;8.80;99.90
16838;DHT22;19510;54.486;9.046;2023-02-28T16:07:34;8.60;99.90
16838;DHT22;19510;54.486;9.046;2023-02-28T16:10:01;8.50;99.90
16838;DHT22;19510;54.486;9.046;2023-02-28T16:12:30;8.40;99.90
16838;DHT22;19510;54.486;9.046;2023-02-28T16:14:59;8.40;99.90
16838;DHT22;19510;54.486;9.046;2023-02-28T16:17:33;8.30;99.90
16838;DHT22;19510;54.486;9.046;2023-02-28T16:20:05;8.10;99.90
16838;DHT22;19510;54.486;9.046;2023-02-28T16:22:31;8.10;99.90
16838;DHT22;19510;54.486;9.046;2023-02-28T16:24:56;8.00;99.90
16838;DHT22;19510;54.486;9.046;2023-02-28T16:27:30;8.00;99.90
16838;DHT22;19510;54.486;9.046;2023-02-28T16:29:56;8.00;99.90
16838;DHT22;19510;54.486;9.046;2023-02-28T16:32:22;7.90;99.90
16838;DHT22;19510;54.486;9.046;2023-02-28T16:34:48;7.80;99.90
16838;DHT22;19510;54.486;9.046;2023-02-28T16:37:17;7.80;99.90
16838;DHT22;19510;54.486;9.046;2023-02-28T16:39:44;7.70;99.90
16838;DHT22;19510;54.486;9.046;2023-02-28T16:42:23;7.50;99.90
16838;DHT22;19510;54.486;9.046;2023-02-28T16:44:51;7.50;99.90
16838;DHT22;19510;54.486;9.046;2023-02-28T16:47:18;7.40;99.90
16838;DHT22;19510;54.486;9.046;2023-02-28T16:49:43;7.40;99.90
16838;DHT22;19510;54.486;9.046;2023-02-28T16:52:10;7.30;99.90
16838;DHT22;19510;54.486;9.046;2023-02-28T16:54:38;7.20;99.90
16838;DHT22;19510;54.486;9.046;2023-02-28T16:57:05;7.10;99.90
16838;DHT22;19510;54.486;9.046;2023-02-28T16:59:32;7.00;99.90
16838;DHT22;19510;54.486;9.046;2023-02-28T17:01:58;7.00;99.90
16838;DHT22;19510;54.486;9.046;2023-02-28T17:04:27;7.00;99.90
16838;DHT22;19510;54.486;9.046;2023-02-28T17:06:53;6.90;99.90
16838;DHT22;19510;54.486;9.046;2023-02-28T17:09:21;6.90;99.90
16838;DHT22;19510;54.486;9.046;2023-02-28T17:11:47;6.90;99.90
16838;DHT22;19510;54.486;9.046;2023-02-28T17:14:13;6.80;99.90
16838;DHT22;19510;54.486;9.046;2023-02-28T17:16:40;6.80;99.90
16838;DHT22;19510;54.486;9.046;2023-02-28T17:19:11;6.70;99.90
16838;DHT22;19510;54.486;9.046;2023-02-28T17:25:11;6.60;99.90
16838;DHT22;19510;54.486;9.046;2023-02-28T17:27:37;6.60;99.90
16838;DHT22;19510;54.486;9.046;2023-02-28T17:32:41;6.60;99.90
16838;DHT22;19510;54.486;9.046;2023-02-28T17:35:08;6.50;99.90
16838;DHT22;19510;54.486;9.046;2023-02-28T17:37:33;6.50;99.90
16838;DHT22;19510;54.486;9.046;2023-02-28T17:39:59;6.50;99.90
16838;DHT22;19510;54.486;9.046;2023-02-28T17:42:25;6.40;99.90
16838;DHT22;19510;54.486;9.046;2023-02-28T17:44:53;6.40;99.90
16838;DHT22;19510;54.486;9.046;2023-02-28T17:47:18;6.40;99.90
16838;DHT22;19510;54.486;9.046;2023-02-28T17:49:46;6.30;99.90
16838;DHT22;19510;54.486;9.046;2023-02-28T17:52:12;6.30;99.90
16838;DHT22;19510;54.486;9.046;2023-02-28T17:54:38;6.20;99.90
16838;DHT22;19510;54.486;9.046;2023-02-28T17:57:04;6.30;99.90
16838;DHT22;19510;54.486;9.046;2023-02-28T17:59:30;6.20;99.90
16838;DHT22;19510;54.486;9.046;2023-02-28T18:02:03;6.20;99.90
16838;DHT22;19510;54.486;9.046;2023-02-28T18:04:29;6.20;99.90
16838;DHT22;19510;54.486;9.046;2023-02-28T18:06:55;6.20;99.90
16838;DHT22;19510;54.486;9.046;2023-02-28T18:09:26;6.10;99.90
16838;DHT22;19510;54.486;9.046;2023-02-28T18:11:54;6.10;99.90
16838;DHT22;19510;54.486;9.046;2023-02-28T18:14:22;6.10;99.90
16838;DHT22;19510;54.486;9.046;2023-02-28T18:16:49;6.10;99.90
16838;DHT22;19510;54.486;9.046;2023-02-28T18:19:15;6.10;99.90
16838;DHT22;19510;54.486;9.046;2023-02-28T18:21:46;6.10;99.90
16838;DHT22;19510;54.486;9.046;2023-02-28T18:24:13;6.10;99.90
16838;DHT22;19510;54.486;9.046;2023-02-28T18:26:41;6.10;99.90
16838;DHT22;19510;54.486;9.046;2023-02-28T18:29:16;6.00;99.90
16838;DHT22;19510;54.486;9.046;2023-02-28T18:31:42;6.00;99.90
16838;DHT22;19510;54.486;9.046;2023-02-28T18:34:08;6.00;99.90
16838;DHT22;19510;54.486;9.046;2023-02-28T18:36:34;6.00;99.90
16838;DHT22;19510;54.486;9.046;2023-02-28T18:39:00;6.00;99.90
16838;DHT22;19510;54.486;9.046;2023-02-28T18:41:25;6.00;99.90
16838;DHT22;19510;54.486;9.046;2023-02-28T18:43:54;6.00;99.90
16838;DHT22;19510;54.486;9.046;2023-02-28T18:46:20;6.00;99.90
16838;DHT22;19510;54.486;9.046;2023-02-28T18:48:46;5.90;99.90
16838;DHT22;19510;54.486;9.046;2023-02-28T18:51:15;5.80;99.90
16838;DHT22;19510;54.486;9.046;2023-02-28T18:53:42;5.80;99.90
16838;DHT22;19510;54.486;9.046;2023-02-28T18:56:10;5.90;99.90
16838;DHT22;19510;54.486;9.046;2023-02-28T18:58:37;5.90;99.90
16838;DHT22;19510;54.486;9.046;2023-02-28T19:01:10;5.90;99.90
16838;DHT22;19510;54.486;9.046;2023-02-28T19:03:38;5.80;99.90
16838;DHT22;19510;54.486;9.046;2023-02-28T19:06:04;5.80;99.90
16838;DHT22;19510;54.486;9.046;2023-02-28T19:08:29;5.70;99.90
16838;DHT22;19510;54.486;9.046;2023-02-28T19:10:55;5.70;99.90
16838;DHT22;19510;54.486;9.046;2023-02-28T19:13:21;5.70;99.90
16838;DHT22;19510;54.486;9.046;2023-02-28T19:15:47;5.70;99.90
16838;DHT22;19510;54.486;9.046;2023-02-28T19:18:13;5.70;99.90
16838;DHT22;19510;54.486;9.046;2023-02-28T19:20:38;5.70;99.90
16838;DHT22;19510;54.486;9.046;2023-02-28T19:23:04;5.70;99.90
16838;DHT22;19510;54.486;9.046;2023-02-28T19:25:30;5.70;99.90
16838;DHT22;19510;54.486;9.046;2023-02-28T19:27:56;5.70;99.90
16838;DHT22;19510;54.486;9.046;2023-02-28T19:30:22;5.70;99.90
16838;DHT22;19510;54.486;9.046;2023-02-28T19:32:48;5.60;99.90
16838;DHT22;19510;54.486;9.046;2023-02-28T19:35:15;5.60;99.90
16838;DHT22;19510;54.486;9.046;2023-02-28T19:37:43;5.60;99.90
16838;DHT22;19510;54.486;9.046;2023-02-28T19:40:10;5.60;99.90
16838;DHT22;19510;54.486;9.046;2023-02-28T19:42:38;5.50;99.90
16838;DHT22;19510;54.486;9.046;2023-02-28T19:45:04;5.60;99.90
16838;DHT22;19510;54.486;9.046;2023-02-28T19:47:30;5.50;99.90
16838;DHT22;19510;54.486;9.046;2023-02-28T19:49:56;5.50;99.90
16838;DHT22;19510;54.486;9.046;2023-02-28T19:52:23;5.50;99.90
16838;DHT22;19510;54.486;9.046;2023-02-28T19:54:49;5.50;99.90
16838;DHT22;19510;54.486;9.046;2023-02-28T19:57:15;5.50;99.90
16838;DHT22;19510;54.486;9.046;2023-02-28T19:59:42;5.40;99.90
16838;DHT22;19510;54.486;9.046;2023-02-28T20:02:15;5.50;99.90
16838;DHT22;19510;54.486;9.046;2023-02-28T20:04:41;5.50;99.90
16838;DHT22;19510;54.486;9.046;2023-02-28T20:07:07;5.50;99.90
16838;DHT22;19510;54.486;9.046;2023-02-28T20:09:35;5.50;99.90
16838;DHT22;19510;54.486;9.046;2023-02-28T20:12:01;5.50;99.90
16838;DHT22;19510;54.486;9.046;2023-02-28T20:14:28;5.50;99.90
16838;DHT22;19510;54.486;9.046;2023-02-28T20:16:54;5.50;99.90
16838;DHT22;19510;54.486;9.046;2023-02-28T20:19:20;5.40;99.90
16838;DHT22;19510;54.486;9.046;2023-02-28T20:21:49;5.40;99.90
16838;DHT22;19510;54.486;9.046;2023-02-28T20:24:14;5.40;99.90
16838;DHT22;19510;54.486;9.046;2023-02-28T20:26:43;5.40;99.90
16838;DHT22;19510;54.486;9.046;2023-02-28T20:29:11;5.40;99.90
16838;DHT22;19510;54.486;9.046;2023-02-28T20:31:38;5.40;99.90
16838;DHT22;19510;54.486;9.046;2023-02-28T20:34:04;5.30;99.90
16838;DHT22;19510;54.486;9.046;2023-02-28T20:36:30;5.40;99.90
16838;DHT22;19510;54.486;9.046;2023-02-28T20:38:56;5.30;99.90
16838;DHT22;19510;54.486;9.046;2023-02-28T20:41:23;5.20;99.90
16838;DHT22;19510;54.486;9.046;2023-02-28T20:43:56;5.20;99.90
16838;DHT22;19510;54.486;9.046;2023-02-28T20:46:24;5.20;99.90
16838;DHT22;19510;54.486;9.046;2023-02-28T20:48:49;5.20;99.90
16838;DHT22;19510;54.486;9.046;2023-02-28T20:51:15;5.30;99.90
16838;DHT22;19510;54.486;9.046;2023-02-28T20:53:41;5.30;99.90
16838;DHT22;19510;54.486;9.046;2023-02-28T20:56:25;5.20;99.90
16838;DHT22;19510;54.486;9.046;2023-02-28T20:58:52;5.20;99.90
16838;DHT22;19510;54.486;9.046;2023-02-28T21:01:22;5.20;99.90
16838;DHT22;19510;54.486;9.046;2023-02-28T21:06:19;5.20;99.90
16838;DHT22;19510;54.486;9.046;2023-02-28T21:08:45;5.20;99.90
16838;DHT22;19510;54.486;9.046;2023-02-28T21:11:16;5.20;99.90
16838;DHT22;19510;54.486;9.046;2023-02-28T21:13:44;5.20;99.90
16838;DHT22;19510;54.486;9.046;2023-02-28T21:16:15;5.10;99.90
16838;DHT22;19510;54.486;9.046;2023-02-28T21:18:42;5.10;99.90
16838;DHT22;19510;54.486;9.046;2023-02-28T21:21:12;5.10;99.90
16838;DHT22;19510;54.486;9.046;2023-02-28T21:23:39;5.10;99.90
16838;DHT22;19510;54.486;9.046;2023-02-28T21:26:10;5.10;99.90
16838;DHT22;19510;54.486;9.046;2023-02-28T21:28:37;5.10;99.90
16838;DHT22;19510;54.486;9.046;2023-02-28T21:31:14;5.00;99.90
16838;DHT22;19510;54.486;9.046;2023-02-28T21:33:41;4.90;99.90
16838;DHT22;19510;54.486;9.046;2023-02-28T21:36:18;4.90;99.90
16838;DHT22;19510;54.486;9.046;2023-02-28T21:38:45;4.90;99.90
16838;DHT22;19510;54.486;9.046;2023-02-28T21:41:18;4.90;99.90
16838;DHT22;19510;54.486;9.046;2023-02-28T21:43:45;4.90;99.90
16838;DHT22;19510;54.486;9.046;2023-02-28T21:46:13;4.90;99.90
16838;DHT22;19510;54.486;9.046;2023-02-28T21:48:40;4.80;99.90
16838;DHT22;19510;54.486;9.046;2023-02-28T21:51:09;4.80;99.90
16838;DHT22;19510;54.486;9.046;2023-02-28T21:53:39;4.80;99.90
16838;DHT22;19510;54.486;9.046;2023-02-28T21:56:14;4.70;99.90
16838;DHT22;19510;54.486;9.046;2023-02-28T21:58:43;4.70;99.90
16838;DHT22;19510;54.486;9.046;2023-02-28T22:01:20;4.70;99.90
16838;DHT22;19510;54.486;9.046;2023-02-28T22:03:48;4.60;99.90
16838;DHT22;19510;54.486;9.046;2023-02-28T22:06:21;4.60;99.90
16838;DHT22;19510;54.486;9.046;2023-02-28T22:08:51;4.50;99.90
16838;DHT22;19510;54.486;9.046;2023-02-28T22:11:18;4.50;99.90
16838;DHT22;19510;54.486;9.046;2023-02-28T22:13:44;4.50;99.90
16838;DHT22;19510;54.486;9.046;2023-02-28T22:16:13;4.40;99.90
16838;DHT22;19510;54.486;9.046;2023-02-28T22:18:40;4.40;99.90
16838;DHT22;19510;54.486;9.046;2023-02-28T22:21:07;4.40;99.90
16838;DHT22;19510;54.486;9.046;2023-02-28T22:23:34;4.40;99.90
16838;DHT22;19510;54.486;9.046;2023-02-28T22:26:01;4.30;99.90
16838;DHT22;19510;54.486;9.046;2023-02-28T22:28:27;4.30;99.90
16838;DHT22;19510;54.486;9.046;2023-02-28T22:30:55;4.30;99.90
16838;DHT22;19510;54.486;9.046;2023-02-28T22:33:21;4.30;99.90
16838;DHT22;19510;54.486;9.046;2023-02-28T22:35:47;4.20;99.90
16838;DHT22;19510;54.486;9.046;2023-02-28T22:38:14;4.30;99.90
16838;DHT22;19510;54.486;9.046;2023-02-28T22:40:42;4.20;99.90
16838;DHT22;19510;54.486;9.046;2023-02-28T22:43:08;4.20;99.90
16838;DHT22;19510;54.486;9.046;2023-02-28T22:45:37;4.20;99.90
16838;DHT22;19510;54.486;9.046;2023-02-28T22:48:05;4.10;99.90
16838;DHT22;19510;54.486;9.046;2023-02-28T22:50:32;4.10;99.90
16838;DHT22;19510;54.486;9.046;2023-02-28T22:52:58;4.10;99.90
16838;DHT22;19510;54.486;9.046;2023-02-28T22:55:24;4.10;99.90
16838;DHT22;19510;54.486;9.046;2023-02-28T22:57:52;4.10;99.90
16838;DHT22;19510;54.486;9.046;2023-02-28T23:00:18;4.10;99.90
16838;DHT22;19510;54.486;9.046;2023-02-28T23:02:45;4.00;99.90
